Time;durP1;ratioP1;P1;durP2;ratioP2;P2;SDS_P1;SDS_P2;PMS_P1;PMS_P2;Temp;Humidity;BMP_temperature;BMP_pressure;BME280_temperature;BME280_humidity;BME280_pressure;Samples;Min_cycle;Max_cycle;Signal;HPM_P1;HPM_P2
2022/07/17 00:01:01;;;;;;;5.68;2.10;;;12.20;99.90;;;;;;4999696;28;20285;-49
2022/07/17 00:03:28;;;;;;;4.45;2.25;;;12.20;99.90;;;;;;5000302;28;20232;-47
2022/07/17 00:05:56;;;;;;;0.98;0.95;;;12.20;99.90;;;;;;4998533;28;20207;-52
2022/07/17 00:08:23;;;;;;;0.93;0.93;;;12.10;99.90;;;;;;4982932;28;20404;-49
2022/07/17 00:10:51;;;;;;;2.85;1.40;;;12.10;99.90;;;;;;4999798;28;20522;-49
2022/07/17 00:13:18;;;;;;;5.70;1.60;;;12.10;99.90;;;;;;5001833;28;20611;-49
2022/07/17 00:15:46;;;;;;;1.25;1.15;;;12.20;99.90;;;;;;5003804;28;20237;-53
2022/07/17 00:18:13;;;;;;;1.63;1.20;;;12.10;99.90;;;;;;5003501;28;20200;-48
2022/07/17 00:20:40;;;;;;;1.60;1.50;;;12.00;99.90;;;;;;5003586;28;20204;-50
2022/07/17 00:23:07;;;;;;;4.45;2.17;;;12.00;99.90;;;;;;5003395;28;20661;-51
2022/07/17 00:25:35;;;;;;;3.10;2.22;;;12.00;99.90;;;;;;5003608;28;20216;-50
2022/07/17 00:28:03;;;;;;;1.23;1.13;;;12.00;99.90;;;;;;5003422;28;20297;-47
2022/07/17 00:30:30;;;;;;;2.55;1.75;;;12.00;99.90;;;;;;5003523;28;20580;-50
2022/07/17 00:32:58;;;;;;;1.98;1.77;;;11.90;99.90;;;;;;5003419;28;20228;-51
2022/07/17 00:35:25;;;;;;;2.08;1.42;;;11.90;99.90;;;;;;5003207;28;20368;-48
2022/07/17 00:37:53;;;;;;;6.65;1.88;;;11.80;99.90;;;;;;5003194;28;20224;-48
2022/07/17 00:40:22;;;;;;;2.90;1.90;;;11.90;99.90;;;;;;5003181;28;20209;-47
2022/07/17 00:42:50;;;;;;;2.28;1.63;;;11.80;99.90;;;;;;5003265;28;20332;-48
2022/07/17 00:45:18;;;;;;;3.95;1.75;;;11.80;99.90;;;;;;5003184;28;20490;-50
2022/07/17 00:48:00;;;;;;;1.83;1.58;;;11.80;99.90;;;;;;4997038;28;20373;-48
2022/07/17 00:50:35;;;;;;;5.43;1.80;;;11.80;99.90;;;;;;5000822;28;20213;-50
2022/07/17 00:53:04;;;;;;;1.67;1.58;;;11.90;99.90;;;;;;5003241;28;20303;-51
2022/07/17 00:55:34;;;;;;;7.03;1.88;;;11.90;99.90;;;;;;5003761;28;20442;-48
2022/07/17 00:58:16;;;;;;;2.45;1.90;;;11.80;99.90;;;;;;5003226;28;20522;-45
2022/07/17 01:00:44;;;;;;;2.83;1.40;;;11.80;99.90;;;;;;5003285;28;20419;-48
2022/07/17 01:03:14;;;;;;;4.93;2.85;;;11.80;99.90;;;;;;5003219;28;20231;-48
2022/07/17 01:05:42;;;;;;;2.35;1.42;;;11.70;99.90;;;;;;5003431;28;20212;-50
2022/07/17 01:08:09;;;;;;;1.67;1.35;;;11.60;99.90;;;;;;5002821;28;20204;-49
2022/07/17 01:10:38;;;;;;;4.85;1.35;;;11.60;99.90;;;;;;5002976;28;20205;-52
2022/07/17 01:13:05;;;;;;;2.08;1.92;;;11.50;99.90;;;;;;5002232;28;20232;-50
2022/07/17 01:15:37;;;;;;;3.00;1.92;;;11.50;99.90;;;;;;5003202;28;20223;-47
2022/07/17 01:18:07;;;;;;;2.95;1.70;;;11.50;99.90;;;;;;4998344;28;20206;-48
2022/07/17 01:20:36;;;;;;;3.90;1.85;;;11.60;99.90;;;;;;5004292;28;20507;-46
2022/07/17 01:23:03;;;;;;;2.05;1.70;;;11.50;99.90;;;;;;5003284;28;20434;-50
2022/07/17 01:25:31;;;;;;;2.03;1.50;;;11.50;99.90;;;;;;5001690;28;20421;-52
2022/07/17 01:28:00;;;;;;;2.35;1.70;;;11.50;99.90;;;;;;5002294;28;20287;-47
2022/07/17 01:30:28;;;;;;;1.50;1.40;;;11.40;99.90;;;;;;4999519;28;20284;-47
2022/07/17 01:32:55;;;;;;;1.65;1.45;;;11.40;99.90;;;;;;5000990;28;20228;-50
2022/07/17 01:35:22;;;;;;;3.85;1.67;;;11.50;99.90;;;;;;5002106;28;20205;-51
2022/07/17 01:37:50;;;;;;;1.98;1.80;;;11.50;99.90;;;;;;5002133;28;20223;-51
2022/07/17 01:40:17;;;;;;;1.20;1.02;;;11.40;99.90;;;;;;5002084;28;20193;-50
2022/07/17 01:42:47;;;;;;;2.65;1.65;;;11.30;99.90;;;;;;5001940;28;20209;-54
2022/07/17 01:45:16;;;;;;;3.13;1.83;;;11.30;99.90;;;;;;5002385;28;20205;-51
2022/07/17 01:47:44;;;;;;;5.50;2.17;;;11.30;99.90;;;;;;5001944;28;20209;-49
2022/07/17 01:50:12;;;;;;;10.27;2.13;;;11.40;99.90;;;;;;5001991;28;20407;-49
2022/07/17 01:52:41;;;;;;;2.53;1.85;;;11.30;99.90;;;;;;5001717;28;20251;-50
2022/07/17 01:55:11;;;;;;;3.70;1.70;;;11.10;99.90;;;;;;5002023;28;20396;-54
2022/07/17 01:57:39;;;;;;;1.75;1.60;;;11.10;99.90;;;;;;5002427;28;20220;-51
2022/07/17 02:00:10;;;;;;;2.40;1.73;;;11.00;99.90;;;;;;5002573;28;20450;-51
2022/07/17 02:02:38;;;;;;;2.05;1.40;;;11.10;99.90;;;;;;5002046;28;20226;-53
2022/07/17 02:05:05;;;;;;;2.50;1.65;;;11.20;99.90;;;;;;5001701;28;20235;-47
2022/07/17 02:07:39;;;;;;;2.88;2.00;;;11.20;99.90;;;;;;5001928;28;20204;-53
2022/07/17 02:10:09;;;;;;;1.85;1.75;;;11.30;99.90;;;;;;5001474;28;20250;-49
2022/07/17 02:12:36;;;;;;;5.13;2.40;;;11.40;99.90;;;;;;5001679;28;20431;-47
2022/07/17 02:15:05;;;;;;;5.28;2.95;;;11.40;99.90;;;;;;5001493;28;20546;-47
2022/07/17 02:17:32;;;;;;;4.45;2.22;;;11.40;99.90;;;;;;5002053;28;20211;-50
2022/07/17 02:19:59;;;;;;;3.05;2.28;;;11.30;99.90;;;;;;5001299;28;20205;-50
2022/07/17 02:22:27;;;;;;;6.35;3.28;;;11.10;99.90;;;;;;5001325;28;20212;-52
2022/07/17 02:24:54;;;;;;;2.65;2.42;;;11.10;99.90;;;;;;5001422;28;20211;-49
2022/07/17 02:27:21;;;;;;;3.95;2.45;;;11.10;99.90;;;;;;5001253;28;20403;-48
2022/07/17 02:29:49;;;;;;;3.35;1.75;;;10.90;99.90;;;;;;5001419;28;20204;-54
2022/07/17 02:32:16;;;;;;;2.40;2.10;;;11.00;99.90;;;;;;5000787;28;20237;-48
2022/07/17 02:34:43;;;;;;;2.25;1.73;;;11.10;99.90;;;;;;5001003;28;20567;-53
2022/07/17 02:37:10;;;;;;;2.33;1.83;;;11.00;99.90;;;;;;5001028;28;20201;-52
2022/07/17 02:39:51;;;;;;;2.60;2.25;;;11.20;99.90;;;;;;5001264;28;20215;-51
2022/07/17 02:42:23;;;;;;;2.60;1.63;;;11.10;99.90;;;;;;5000903;28;20228;-49
2022/07/17 02:44:50;;;;;;;2.50;1.73;;;11.10;99.90;;;;;;4993618;28;20292;-52
2022/07/17 02:47:27;;;;;;;1.88;1.50;;;11.00;99.90;;;;;;5000889;28;20205;-49
2022/07/17 02:49:54;;;;;;;9.77;1.90;;;10.90;99.90;;;;;;4993981;28;20387;-51
2022/07/17 02:52:22;;;;;;;2.30;1.70;;;10.90;99.90;;;;;;5000692;28;20230;-50
2022/07/17 02:54:49;;;;;;;3.67;2.40;;;10.90;99.90;;;;;;5000631;28;20228;-50
2022/07/17 02:57:18;;;;;;;1.20;1.10;;;10.80;99.90;;;;;;5000780;28;20200;-50
2022/07/17 02:59:46;;;;;;;1.70;1.60;;;10.70;99.90;;;;;;5000661;28;20197;-50
2022/07/17 03:02:14;;;;;;;9.93;1.80;;;10.80;99.90;;;;;;5000787;28;20280;-51
2022/07/17 03:04:41;;;;;;;3.75;2.00;;;10.80;99.90;;;;;;5000492;28;20232;-50
2022/07/17 03:07:09;;;;;;;2.15;1.45;;;10.80;99.90;;;;;;5000620;28;20216;-46
2022/07/17 03:09:36;;;;;;;2.13;1.85;;;10.80;99.90;;;;;;5000430;28;20215;-52
2022/07/17 03:12:03;;;;;;;1.77;1.50;;;10.90;99.90;;;;;;5000291;28;20507;-50
2022/07/17 03:14:31;;;;;;;2.15;1.58;;;11.10;99.90;;;;;;5000415;28;20228;-49
2022/07/17 03:16:58;;;;;;;2.58;1.45;;;11.10;99.90;;;;;;5000926;28;20267;-49
2022/07/17 03:19:25;;;;;;;2.20;1.75;;;11.20;99.90;;;;;;5000548;28;20450;-51
2022/07/17 03:21:52;;;;;;;4.05;1.85;;;11.10;99.90;;;;;;5000241;28;20201;-51
2022/07/17 03:24:19;;;;;;;3.05;1.73;;;11.20;99.90;;;;;;5000150;28;20618;-52
2022/07/17 03:26:47;;;;;;;7.65;1.85;;;11.40;99.90;;;;;;4997112;28;20217;-50
2022/07/17 03:29:17;;;;;;;4.75;2.28;;;11.50;99.90;;;;;;5000358;28;20204;-50
2022/07/17 03:31:45;;;;;;;1.88;1.48;;;11.40;99.90;;;;;;5001046;28;20202;-51
2022/07/17 03:34:12;;;;;;;2.20;1.65;;;11.40;99.90;;;;;;5000504;28;20295;-48
2022/07/17 03:36:40;;;;;;;1.92;1.40;;;11.60;99.90;;;;;;5000933;28;20202;-52
2022/07/17 03:39:07;;;;;;;3.85;2.22;;;11.80;99.90;;;;;;4995651;28;20197;-52
2022/07/17 03:41:35;;;;;;;3.38;1.65;;;12.00;99.90;;;;;;5000116;28;20231;-53
2022/07/17 03:44:02;;;;;;;2.20;1.42;;;12.40;99.90;;;;;;5000108;28;20471;-53
2022/07/17 03:46:30;;;;;;;3.95;2.05;;;13.00;99.90;;;;;;4999955;28;20212;-52
2022/07/17 03:48:58;;;;;;;2.17;1.67;;;13.60;99.90;;;;;;4999707;28;20509;-51
2022/07/17 03:51:25;;;;;;;3.47;1.55;;;14.30;99.90;;;;;;4999895;28;20209;-50
2022/07/17 03:53:54;;;;;;;1.40;1.27;;;15.00;99.90;;;;;;4999928;28;20249;-49
2022/07/17 03:56:21;;;;;;;3.08;1.52;;;15.20;99.90;;;;;;5000012;28;20226;-54
2022/07/17 03:58:49;;;;;;;4.35;2.45;;;15.10;99.90;;;;;;5000018;28;20544;-51
2022/07/17 04:01:16;;;;;;;2.05;1.30;;;15.00;99.90;;;;;;5000225;28;20287;-53
2022/07/17 04:03:44;;;;;;;2.08;1.20;;;14.90;99.90;;;;;;4999724;28;20235;-51
2022/07/17 04:06:11;;;;;;;1.43;1.33;;;14.80;99.90;;;;;;4999557;28;20204;-52
2022/07/17 04:08:38;;;;;;;2.60;1.58;;;14.90;99.90;;;;;;5000020;28;20454;-49
2022/07/17 04:11:06;;;;;;;1.33;1.23;;;14.80;99.90;;;;;;5000176;28;20204;-50
2022/07/17 04:13:36;;;;;;;5.13;1.60;;;14.50;99.90;;;;;;4998752;28;20694;-47
2022/07/17 04:16:04;;;;;;;1.80;1.08;;;14.30;99.90;;;;;;5000187;28;20210;-49
2022/07/17 04:18:34;;;;;;;1.27;1.20;;;14.10;99.90;;;;;;4999765;28;20212;-50
2022/07/17 04:21:06;;;;;;;1.20;1.10;;;13.70;99.90;;;;;;5000213;28;20224;-48
2022/07/17 04:23:34;;;;;;;2.72;1.60;;;13.90;99.90;;;;;;4999615;28;20288;-53
2022/07/17 04:26:03;;;;;;;3.92;1.80;;;13.80;99.90;;;;;;4999848;28;20202;-54
2022/07/17 04:28:38;;;;;;;2.08;1.45;;;13.90;99.90;;;;;;4999556;28;20465;-52
2022/07/17 04:31:06;;;;;;;4.72;1.55;;;13.90;99.90;;;;;;4999604;28;20504;-49
2022/07/17 04:33:33;;;;;;;2.45;2.25;;;13.90;99.90;;;;;;4999440;28;20421;-51
2022/07/17 04:36:00;;;;;;;2.28;1.55;;;13.90;99.90;;;;;;4999931;28;20500;-51
2022/07/17 04:38:28;;;;;;;1.20;1.10;;;13.80;99.90;;;;;;4999618;28;20224;-54
2022/07/17 04:40:55;;;;;;;3.03;1.67;;;14.00;99.90;;;;;;5000095;28;20210;-46
2022/07/17 04:43:23;;;;;;;3.22;1.95;;;14.00;99.90;;;;;;4999583;28;20223;-47
2022/07/17 04:45:50;;;;;;;3.90;1.52;;;14.10;99.90;;;;;;4999243;28;20498;-49
2022/07/17 04:48:17;;;;;;;2.97;1.30;;;14.20;99.90;;;;;;4999649;28;20208;-47
2022/07/17 04:50:44;;;;;;;5.28;1.58;;;14.20;99.90;;;;;;4999366;28;20210;-50
2022/07/17 04:53:11;;;;;;;5.78;1.70;;;14.40;99.90;;;;;;4999118;28;20257;-48
2022/07/17 04:55:38;;;;;;;6.35;1.92;;;14.40;99.90;;;;;;4999912;28;20217;-50
2022/07/17 04:58:06;;;;;;;3.58;2.28;;;14.50;99.90;;;;;;4999311;28;20229;-49
2022/07/17 05:00:33;;;;;;;3.13;1.80;;;14.50;99.90;;;;;;5001365;28;20539;-47
2022/07/17 05:03:01;;;;;;;2.42;1.55;;;14.60;99.90;;;;;;5002934;28;20300;-51
2022/07/17 05:05:28;;;;;;;1.67;1.30;;;14.70;99.90;;;;;;5002950;28;20212;-51
2022/07/17 05:07:56;;;;;;;3.22;1.70;;;14.80;99.90;;;;;;5002926;28;20210;-47
2022/07/17 05:10:23;;;;;;;1.90;1.40;;;15.00;99.90;;;;;;5002747;28;20202;-46
2022/07/17 05:12:54;;;;;;;1.90;1.80;;;15.00;99.90;;;;;;5002464;28;20576;-47
2022/07/17 05:15:21;;;;;;;2.58;1.70;;;15.10;99.90;;;;;;5002366;28;20302;-51
2022/07/17 05:17:49;;;;;;;3.65;1.40;;;15.20;99.90;;;;;;5002762;28;20198;-51
2022/07/17 05:20:16;;;;;;;2.60;1.55;;;15.20;99.90;;;;;;5002530;28;20189;-49
2022/07/17 05:22:43;;;;;;;2.33;2.10;;;15.30;99.90;;;;;;5002855;28;20210;-54
2022/07/17 05:25:10;;;;;;;3.92;1.30;;;15.50;99.90;;;;;;5002758;28;20435;-50
2022/07/17 05:27:38;;;;;;;2.90;1.63;;;15.50;99.90;;;;;;5003088;28;20271;-54
2022/07/17 05:30:05;;;;;;;2.87;1.70;;;15.80;99.90;;;;;;5002538;28;20391;-50
2022/07/17 05:32:33;;;;;;;1.33;1.23;;;16.10;99.90;;;;;;5002312;28;20449;-50
2022/07/17 05:35:00;;;;;;;1.77;1.43;;;16.20;99.90;;;;;;5002437;28;20642;-50
2022/07/17 05:37:27;;;;;;;2.80;1.67;;;16.40;99.90;;;;;;5002070;28;20671;-47
2022/07/17 05:39:54;;;;;;;2.43;1.37;;;16.50;99.90;;;;;;5002300;28;20439;-51
2022/07/17 05:42:22;;;;;;;2.20;1.47;;;16.60;99.90;;;;;;5001664;28;20441;-47
2022/07/17 05:44:49;;;;;;;1.20;1.10;;;16.80;99.90;;;;;;5002059;28;20661;-53
2022/07/17 05:47:17;;;;;;;1.33;1.00;;;16.70;99.90;;;;;;5002119;28;20453;-55
2022/07/17 05:49:44;;;;;;;2.63;1.70;;;17.00;99.90;;;;;;5002868;28;20455;-55
2022/07/17 05:52:11;;;;;;;3.80;1.90;;;17.10;99.90;;;;;;5002447;28;20444;-48
2022/07/17 05:54:38;;;;;;;4.30;2.37;;;17.30;99.90;;;;;;5001766;28;20993;-49
2022/07/17 05:57:05;;;;;;;2.50;1.70;;;17.30;99.90;;;;;;5001822;28;20457;-48
2022/07/17 05:59:36;;;;;;;1.33;1.23;;;17.40;99.90;;;;;;5001574;28;20443;-47
2022/07/17 06:02:04;;;;;;;2.20;1.47;;;17.40;99.90;;;;;;5001646;28;20434;-48
2022/07/17 06:04:32;;;;;;;3.77;1.40;;;17.40;99.90;;;;;;5001737;28;20491;-49
2022/07/17 06:06:59;;;;;;;2.80;1.20;;;17.60;99.90;;;;;;5001701;28;20629;-49
2022/07/17 06:09:27;;;;;;;1.27;1.00;;;17.90;99.90;;;;;;5001534;28;20751;-47
2022/07/17 06:11:54;;;;;;;3.63;1.40;;;18.20;99.90;;;;;;5001011;28;20439;-49
2022/07/17 06:14:24;;;;;;;3.97;1.40;;;18.50;99.90;;;;;;5001445;28;20516;-48
2022/07/17 06:16:51;;;;;;;1.57;1.47;;;18.70;99.90;;;;;;5001479;28;20466;-47
2022/07/17 06:19:19;;;;;;;3.63;1.83;;;18.70;99.90;;;;;;5000998;28;20474;-51
2022/07/17 06:21:46;;;;;;;4.70;1.50;;;18.80;99.90;;;;;;4998320;28;20400;-47
2022/07/17 06:24:13;;;;;;;2.00;1.73;;;18.90;99.90;;;;;;5001325;28;20481;-47
2022/07/17 06:26:41;;;;;;;2.27;1.60;;;19.30;99.90;;;;;;5001195;28;20424;-51
2022/07/17 06:29:08;;;;;;;1.43;1.03;;;20.00;99.90;;;;;;5001078;28;20474;-50
2022/07/17 06:31:35;;;;;;;3.87;1.57;;;20.60;99.90;;;;;;5001041;28;20440;-47
2022/07/17 06:34:02;;;;;;;4.83;1.20;;;20.90;99.90;;;;;;5001018;28;20482;-47
2022/07/17 06:36:30;;;;;;;2.00;1.07;;;21.10;99.90;;;;;;5000887;28;20447;-49
2022/07/17 06:38:57;;;;;;;2.23;1.50;;;21.10;99.90;;;;;;5000931;28;20434;-50
2022/07/17 06:41:24;;;;;;;2.70;1.40;;;21.00;99.90;;;;;;5000991;28;20408;-50
2022/07/17 06:43:52;;;;;;;3.53;1.47;;;20.90;99.90;;;;;;5001113;28;20634;-50
2022/07/17 06:46:20;;;;;;;0.97;0.93;;;21.10;99.90;;;;;;5000580;28;20406;-52
2022/07/17 06:48:51;;;;;;;1.60;1.00;;;20.90;99.90;;;;;;4993073;28;20460;-54
2022/07/17 06:51:18;;;;;;;2.37;1.50;;;21.10;99.90;;;;;;5001197;28;20441;-49
2022/07/17 06:53:46;;;;;;;2.80;1.50;;;21.60;99.90;;;;;;4993142;28;20696;-52
2022/07/17 06:56:13;;;;;;;2.03;1.30;;;22.10;99.90;;;;;;5000897;28;20439;-50
2022/07/17 06:58:41;;;;;;;1.47;1.27;;;22.30;99.90;;;;;;5001042;28;20413;-50
2022/07/17 07:01:08;;;;;;;5.60;1.43;;;23.20;99.90;;;;;;5000929;28;20804;-54
2022/07/17 07:03:35;;;;;;;2.73;1.70;;;23.50;99.90;;;;;;5000966;28;20442;-54
2022/07/17 07:06:02;;;;;;;3.40;1.50;;;23.60;99.90;;;;;;5001127;28;20441;-51
2022/07/17 07:08:30;;;;;;;3.53;0.90;;;24.10;99.90;;;;;;4998085;28;20444;-48
2022/07/17 07:10:57;;;;;;;4.73;0.97;;;24.80;99.90;;;;;;4992547;28;20503;-51
2022/07/17 07:13:24;;;;;;;1.40;1.10;;;25.50;99.90;;;;;;4991696;28;20773;-52
2022/07/17 07:15:51;;;;;;;3.23;1.63;;;26.40;99.90;;;;;;4994125;28;20415;-53
2022/07/17 07:18:18;;;;;;;2.30;1.87;;;27.10;99.90;;;;;;4994004;28;20445;-53
2022/07/17 07:20:45;;;;;;;1.20;1.10;;;29.40;97.20;;;;;;5000464;28;20435;-54
2022/07/17 07:23:12;;;;;;;1.30;1.20;;;30.10;93.60;;;;;;4998857;28;20448;-54
2022/07/17 07:25:40;;;;;;;1.93;1.20;;;29.00;92.40;;;;;;5000166;28;20774;-49
2022/07/17 07:28:07;;;;;;;5.20;1.70;;;29.30;93.00;;;;;;5001527;28;20510;-50
2022/07/17 07:30:35;;;;;;;1.60;1.20;;;30.70;89.20;;;;;;5007128;28;20519;-51
2022/07/17 07:33:02;;;;;;;3.03;1.90;;;31.10;85.70;;;;;;5000305;28;20634;-53
2022/07/17 07:35:30;;;;;;;1.90;1.20;;;32.30;80.90;;;;;;5000222;28;20444;-51
2022/07/17 07:37:57;;;;;;;2.10;1.50;;;33.20;74.70;;;;;;5000422;28;20438;-54
2022/07/17 07:40:25;;;;;;;1.33;1.23;;;33.70;71.30;;;;;;5000457;28;20768;-53
2022/07/17 07:42:52;;;;;;;4.40;1.23;;;33.00;68.30;;;;;;5000018;28;20443;-54
2022/07/17 07:45:19;;;;;;;3.70;1.07;;;33.00;68.20;;;;;;5000592;28;20447;-51
2022/07/17 07:47:50;;;;;;;2.30;0.90;;;33.40;66.00;;;;;;4997549;28;20762;-52
2022/07/17 07:50:21;;;;;;;5.53;1.73;;;34.50;64.80;;;;;;5000006;28;20439;-52
2022/07/17 07:52:48;;;;;;;1.43;1.17;;;35.60;61.80;;;;;;4996555;28;20498;-54
2022/07/17 07:55:16;;;;;;;2.97;1.33;;;33.70;62.00;;;;;;5000119;28;20805;-50
2022/07/17 07:57:48;;;;;;;1.90;1.07;;;31.50;67.10;;;;;;4995985;28;20442;-49
2022/07/17 08:00:16;;;;;;;1.90;1.70;;;31.10;67.90;;;;;;5000261;28;20505;-50
2022/07/17 08:02:44;;;;;;;3.10;1.47;;;31.10;67.90;;;;;;4999629;28;20447;-47
2022/07/17 08:05:11;;;;;;;6.83;1.40;;;31.50;67.80;;;;;;4999930;28;20446;-51
2022/07/17 08:07:39;;;;;;;2.27;1.40;;;31.40;69.80;;;;;;4999903;28;20822;-53
2022/07/17 08:10:07;;;;;;;4.03;1.67;;;31.40;66.10;;;;;;4999758;28;20456;-52
2022/07/17 08:12:34;;;;;;;2.20;1.30;;;30.60;68.50;;;;;;4999836;28;20447;-49
2022/07/17 08:15:16;;;;;;;1.83;1.20;;;31.90;65.30;;;;;;4999505;28;20493;-52
2022/07/17 08:17:44;;;;;;;1.57;1.23;;;30.40;68.20;;;;;;4999658;28;20439;-53
2022/07/17 08:20:13;;;;;;;2.70;1.50;;;28.00;72.80;;;;;;4999731;28;20759;-49
2022/07/17 08:22:42;;;;;;;1.10;1.00;;;27.10;76.30;;;;;;5000048;28;20485;-48
2022/07/17 08:25:30;;;;;;;2.17;1.60;;;27.20;78.10;;;;;;4999681;28;20656;-48
2022/07/17 08:27:58;;;;;;;1.33;1.03;;;30.40;72.70;;;;;;5000077;28;20440;-52
2022/07/17 08:30:26;;;;;;;2.10;1.23;;;31.90;65.30;;;;;;4999322;28;20435;-51
2022/07/17 08:32:53;;;;;;;1.47;1.23;;;30.40;67.20;;;;;;4999608;28;20515;-51
2022/07/17 08:35:21;;;;;;;3.03;1.40;;;28.50;71.20;;;;;;5002633;28;20689;-47
2022/07/17 08:37:50;;;;;;;2.17;1.30;;;27.70;73.70;;;;;;5003610;28;20436;-50
2022/07/17 08:40:26;;;;;;;1.70;1.20;;;27.10;75.00;;;;;;5003298;28;20767;-51
2022/07/17 08:42:55;;;;;;;2.50;1.20;;;28.30;72.70;;;;;;5002309;28;20458;-50
2022/07/17 08:45:23;;;;;;;6.00;1.73;;;29.70;68.70;;;;;;5003429;28;20559;-50
2022/07/17 08:47:52;;;;;;;3.33;1.20;;;31.40;65.10;;;;;;5003359;28;20665;-49
2022/07/17 08:50:29;;;;;;;1.47;0.90;;;32.30;62.20;;;;;;5003185;28;20523;-51
2022/07/17 08:52:57;;;;;;;3.80;1.70;;;31.40;63.80;;;;;;5000806;28;20809;-52
2022/07/17 08:55:25;;;;;;;1.77;1.13;;;28.50;68.20;;;;;;5003092;28;20453;-50
2022/07/17 08:57:52;;;;;;;1.77;0.97;;;26.90;73.30;;;;;;5002976;28;20443;-54
2022/07/17 09:00:22;;;;;;;1.63;1.20;;;26.50;75.80;;;;;;5003095;28;20500;-52
2022/07/17 09:03:00;;;;;;;1.23;1.03;;;26.10;77.00;;;;;;4997829;28;20818;-52
2022/07/17 09:05:34;;;;;;;2.73;1.27;;;25.60;78.50;;;;;;5003226;28;20530;-51
2022/07/17 09:08:03;;;;;;;6.33;1.27;;;24.60;79.80;;;;;;5003673;28;20438;-50
2022/07/17 09:10:38;;;;;;;1.97;1.37;;;26.30;77.90;;;;;;5003343;28;20633;-53
2022/07/17 09:13:26;;;;;;;1.30;1.20;;;30.40;67.80;;;;;;5003351;28;20441;-51
2022/07/17 09:15:58;;;;;;;1.27;1.10;;;30.40;66.00;;;;;;4995601;28;20693;-51
2022/07/17 09:18:26;;;;;;;1.17;1.07;;;30.60;65.60;;;;;;5002488;28;20794;-51
2022/07/17 09:20:56;;;;;;;2.23;1.50;;;29.10;66.40;;;;;;5002753;28;20781;-52
2022/07/17 09:23:26;;;;;;;3.53;1.20;;;28.40;70.30;;;;;;4997051;28;20461;-50
2022/07/17 09:25:56;;;;;;;1.83;1.50;;;30.10;65.90;;;;;;4996607;28;20443;-51
2022/07/17 09:28:24;;;;;;;2.47;1.50;;;32.30;61.50;;;;;;4996295;28;20422;-53
2022/07/17 09:30:53;;;;;;;2.70;0.97;;;33.30;58.50;;;;;;5002458;28;20442;-52
2022/07/17 09:33:24;;;;;;;1.67;1.30;;;31.30;60.70;;;;;;5001698;28;20465;-52
2022/07/17 09:35:54;;;;;;;3.07;1.17;;;28.90;64.70;;;;;;5002286;28;20530;-50
2022/07/17 09:38:36;;;;;;;1.57;1.10;;;28.60;66.40;;;;;;5001963;28;20414;-49
2022/07/17 09:41:11;;;;;;;2.07;1.27;;;28.50;66.90;;;;;;5000766;28;20792;-48
2022/07/17 09:43:47;;;;;;;6.40;1.30;;;27.90;69.10;;;;;;5001517;28;20453;-53
2022/07/17 09:46:31;;;;;;;3.33;1.47;;;26.90;70.10;;;;;;5001618;28;20430;-53
2022/07/17 09:49:03;;;;;;;3.33;1.70;;;26.30;71.80;;;;;;4995971;28;20755;-53
2022/07/17 09:51:37;;;;;;;3.70;2.00;;;26.50;72.30;;;;;;5001787;28;20408;-51
2022/07/17 09:54:08;;;;;;;1.30;1.20;;;26.50;72.40;;;;;;5001386;28;20536;-52
2022/07/17 09:56:37;;;;;;;1.73;1.30;;;26.10;73.30;;;;;;5001758;28;20462;-52
2022/07/17 09:59:10;;;;;;;1.57;1.47;;;25.50;74.80;;;;;;5001517;28;20416;-49
2022/07/17 10:01:43;;;;;;;2.93;1.13;;;24.70;75.60;;;;;;5001448;28;20432;-56
2022/07/17 10:04:11;;;;;;;2.00;1.23;;;24.60;76.60;;;;;;5000422;28;20554;-52
2022/07/17 10:06:39;;;;;;;4.20;1.47;;;24.80;78.80;;;;;;5001458;28;20527;-55
2022/07/17 10:09:06;;;;;;;1.30;1.00;;;25.00;78.80;;;;;;5001885;28;20515;-54
2022/07/17 10:11:37;;;;;;;5.37;2.03;;;25.40;76.60;;;;;;5001657;28;20481;-49
2022/07/17 10:14:14;;;;;;;1.97;1.57;;;25.70;75.70;;;;;;5000516;28;20775;-54
2022/07/17 10:16:42;;;;;;;2.10;1.43;;;25.60;75.70;;;;;;4999782;28;20438;-46
2022/07/17 10:19:24;;;;;;;2.23;1.40;;;25.40;75.30;;;;;;5001286;28;20511;-47
2022/07/17 10:21:57;;;;;;;7.00;1.53;;;25.00;76.70;;;;;;4999952;28;20597;-51
2022/07/17 10:24:26;;;;;;;2.07;1.53;;;25.20;77.50;;;;;;5001298;28;20463;-54
2022/07/17 10:26:54;;;;;;;1.83;1.50;;;25.20;77.70;;;;;;5001274;28;20510;-54
2022/07/17 10:29:37;;;;;;;3.87;2.03;;;25.60;76.10;;;;;;5001131;28;20655;-48
2022/07/17 10:32:18;;;;;;;2.20;1.90;;;25.80;75.50;;;;;;5000726;28;20460;-51
2022/07/17 10:34:49;;;;;;;2.10;1.87;;;25.60;75.10;;;;;;5000985;28;20506;-53
2022/07/17 10:37:33;;;;;;;1.90;1.20;;;25.80;74.90;;;;;;4999564;28;20447;-48
2022/07/17 10:40:07;;;;;;;2.17;1.37;;;26.10;74.40;;;;;;4995068;28;20578;-53
2022/07/17 10:42:48;;;;;;;1.43;1.33;;;26.30;74.30;;;;;;5000589;28;20436;-49
2022/07/17 10:45:20;;;;;;;2.20;1.30;;;26.10;73.60;;;;;;5000736;28;20427;-52
2022/07/17 10:48:01;;;;;;;1.83;1.10;;;26.30;73.40;;;;;;4998061;28;20444;-48
2022/07/17 10:50:55;;;;;;;2.50;1.20;;;26.40;72.70;;;;;;5000796;28;20763;-51
2022/07/17 10:53:35;;;;;;;2.30;1.17;;;26.30;73.20;;;;;;4995591;28;20450;-50
2022/07/17 10:56:05;;;;;;;2.33;1.10;;;26.30;74.20;;;;;;5017523;28;20686;-50
2022/07/17 10:58:41;;;;;;;4.00;1.50;;;26.20;75.30;;;;;;5001148;28;20416;-51
2022/07/17 11:01:16;;;;;;;1.20;1.10;;;26.40;74.60;;;;;;5000375;28;20435;-47
2022/07/17 11:03:51;;;;;;;1.90;1.20;;;26.20;74.10;;;;;;5000176;28;20551;-51
2022/07/17 11:06:24;;;;;;;2.40;1.27;;;25.90;73.60;;;;;;5000530;28;20407;-48
2022/07/17 11:08:57;;;;;;;5.90;1.93;;;25.70;74.70;;;;;;4993236;28;20443;-50
2022/07/17 11:11:43;;;;;;;1.43;1.23;;;25.40;75.80;;;;;;5000328;28;20449;-53
2022/07/17 11:14:15;;;;;;;1.27;1.17;;;25.30;75.20;;;;;;4999768;28;20429;-49
2022/07/17 11:17:00;;;;;;;1.43;1.33;;;24.90;75.20;;;;;;5000429;28;20464;-53
2022/07/17 11:19:31;;;;;;;2.77;1.27;;;24.60;77.10;;;;;;5000236;28;20444;-51
2022/07/17 11:22:06;;;;;;;1.93;1.10;;;24.30;77.50;;;;;;5000029;28;20411;-54
2022/07/17 11:24:44;;;;;;;1.30;1.17;;;24.10;79.30;;;;;;4999881;28;20430;-52
2022/07/17 11:27:18;;;;;;;7.20;1.70;;;24.10;80.20;;;;;;4999865;28;20406;-52
2022/07/17 11:29:46;;;;;;;3.63;1.43;;;24.40;79.60;;;;;;4999681;28;20736;-55
2022/07/17 11:32:14;;;;;;;3.10;1.60;;;24.40;78.40;;;;;;4999822;28;20439;-52
2022/07/17 11:34:42;;;;;;;1.53;1.40;;;24.60;77.70;;;;;;4999817;28;20566;-53
2022/07/17 11:37:09;;;;;;;2.60;1.30;;;24.80;77.40;;;;;;4999479;28;20414;-52
2022/07/17 11:39:46;;;;;;;1.30;1.20;;;25.20;76.70;;;;;;4999994;28;20516;-52
2022/07/17 11:42:19;;;;;;;2.70;2.17;;;25.30;76.20;;;;;;4997656;28;20449;-53
2022/07/17 11:44:48;;;;;;;2.53;1.40;;;25.30;75.30;;;;;;4991942;28;20451;-49
2022/07/17 11:47:23;;;;;;;1.87;1.30;;;25.20;74.60;;;;;;4999718;28;20747;-52
2022/07/17 11:49:51;;;;;;;1.40;1.30;;;25.30;74.30;;;;;;4998715;28;20410;-49
2022/07/17 11:52:20;;;;;;;1.47;1.13;;;24.30;75.90;;;;;;4999393;28;20449;-46
2022/07/17 11:54:56;;;;;;;4.17;1.73;;;24.20;77.50;;;;;;4998829;28;20454;-49
2022/07/17 11:57:26;;;;;;;5.50;1.47;;;24.10;77.30;;;;;;4999152;28;20488;-52
2022/07/17 12:00:04;;;;;;;2.50;1.53;;;24.10;77.80;;;;;;4998920;28;20443;-54
2022/07/17 12:02:32;;;;;;;2.40;1.53;;;24.00;76.70;;;;;;4998985;28;20435;-52
2022/07/17 12:05:00;;;;;;;3.83;1.80;;;24.00;77.70;;;;;;4998068;28;20438;-51
2022/07/17 12:07:40;;;;;;;2.53;1.47;;;24.10;78.20;;;;;;4999442;28;20424;-51
2022/07/17 12:10:16;;;;;;;3.90;1.70;;;24.00;76.80;;;;;;5001501;28;20438;-52
2022/07/17 12:12:56;;;;;;;2.50;1.40;;;23.70;77.60;;;;;;5000375;28;20474;-51
2022/07/17 12:15:40;;;;;;;3.20;1.70;;;23.70;77.90;;;;;;4994302;28;20493;-51
2022/07/17 12:18:24;;;;;;;1.77;1.67;;;23.60;78.10;;;;;;4995981;28;20453;-52
2022/07/17 12:20:54;;;;;;;1.87;1.50;;;23.60;78.00;;;;;;4994363;28;20521;-53
2022/07/17 12:23:31;;;;;;;1.73;1.33;;;23.60;77.30;;;;;;4992605;28;20767;-53
2022/07/17 12:26:09;;;;;;;1.23;1.13;;;23.40;78.50;;;;;;4995560;28;20459;-53
2022/07/17 12:28:37;;;;;;;3.00;1.60;;;23.50;79.60;;;;;;4997055;28;20415;-49
2022/07/17 12:31:06;;;;;;;1.70;1.50;;;23.70;78.60;;;;;;4998050;28;20435;-49
2022/07/17 12:33:35;;;;;;;2.50;1.60;;;23.70;78.40;;;;;;4996201;28;20433;-52
2022/07/17 12:36:02;;;;;;;3.43;1.73;;;23.40;78.50;;;;;;4996982;28;20483;-52
2022/07/17 12:38:30;;;;;;;3.93;1.43;;;23.50;79.10;;;;;;4994455;28;20435;-55
2022/07/17 12:40:57;;;;;;;2.90;1.80;;;23.50;80.30;;;;;;4992092;28;20414;-50
2022/07/17 12:43:25;;;;;;;1.53;1.43;;;23.70;80.40;;;;;;4992256;28;20753;-53
2022/07/17 12:45:53;;;;;;;4.07;1.40;;;23.90;79.00;;;;;;4991489;28;20771;-53
2022/07/17 12:48:28;;;;;;;1.30;1.10;;;24.00;78.70;;;;;;4987655;28;20490;-54
2022/07/17 12:50:55;;;;;;;1.20;1.10;;;23.90;78.80;;;;;;4985789;28;20422;-54
2022/07/17 12:53:22;;;;;;;2.70;1.27;;;23.90;80.00;;;;;;4984832;28;20655;-55
2022/07/17 12:55:49;;;;;;;3.13;1.07;;;24.00;78.70;;;;;;4983946;28;20454;-48
2022/07/17 12:58:18;;;;;;;2.67;1.80;;;23.90;76.30;;;;;;4988158;28;20411;-51
2022/07/17 13:00:46;;;;;;;2.50;1.20;;;23.70;75.50;;;;;;4983472;28;20407;-52